sensor_id;sensor_type;location;lat;lon;timestamp;P1;durP1;ratioP1;P2;durP2;ratioP2
9986;SDS011;5033;46.310;11.214;2023-03-01T00:02:20;10.23;;;8.85;;
9986;SDS011;5033;46.310;11.214;2023-03-01T00:04:47;10.50;;;9.50;;
9986;SDS011;5033;46.310;11.214;2023-03-01T00:07:14;11.48;;;9.75;;
9986;SDS011;5033;46.310;11.214;2023-03-01T00:09:43;11.00;;;9.88;;
9986;SDS011;5033;46.310;11.214;2023-03-01T00:12:11;9.90;;;8.82;;
9986;SDS011;5033;46.310;11.214;2023-03-01T00:14:38;10.65;;;9.15;;
9986;SDS011;5033;46.310;11.214;2023-03-01T00:17:06;10.35;;;9.35;;
9986;SDS011;5033;46.310;11.214;2023-03-01T00:19:33;9.73;;;8.82;;
9986;SDS011;5033;46.310;11.214;2023-03-01T00:22:02;10.20;;;9.25;;
9986;SDS011;5033;46.310;11.214;2023-03-01T00:24:29;10.15;;;8.90;;
9986;SDS011;5033;46.310;11.214;2023-03-01T00:26:56;10.18;;;9.18;;
9986;SDS011;5033;46.310;11.214;2023-03-01T00:29:23;11.18;;;10.07;;
9986;SDS011;5033;46.310;11.214;2023-03-01T00:31:50;9.68;;;8.75;;
9986;SDS011;5033;46.310;11.214;2023-03-01T00:34:19;9.48;;;8.57;;
9986;SDS011;5033;46.310;11.214;2023-03-01T00:36:46;10.05;;;9.15;;
9986;SDS011;5033;46.310;11.214;2023-03-01T00:39:14;9.95;;;9.00;;
9986;SDS011;5033;46.310;11.214;2023-03-01T00:41:42;11.43;;;10.23;;
9986;SDS011;5033;46.310;11.214;2023-03-01T00:44:09;10.48;;;9.57;;
9986;SDS011;5033;46.310;11.214;2023-03-01T00:46:36;9.63;;;8.63;;
9986;SDS011;5033;46.310;11.214;2023-03-01T00:49:03;9.30;;;8.40;;
9986;SDS011;5033;46.310;11.214;2023-03-01T00:51:32;10.15;;;8.90;;
9986;SDS011;5033;46.310;11.214;2023-03-01T00:54:01;10.40;;;9.30;;
9986;SDS011;5033;46.310;11.214;2023-03-01T00:56:28;9.18;;;8.35;;
9986;SDS011;5033;46.310;11.214;2023-03-01T00:58:56;8.82;;;7.95;;
9986;SDS011;5033;46.310;11.214;2023-03-01T01:01:24;9.93;;;8.93;;
9986;SDS011;5033;46.310;11.214;2023-03-01T01:03:56;9.52;;;8.52;;
9986;SDS011;5033;46.310;11.214;2023-03-01T01:06:25;9.23;;;8.32;;
9986;SDS011;5033;46.310;11.214;2023-03-01T01:08:54;8.90;;;8.10;;
9986;SDS011;5033;46.310;11.214;2023-03-01T01:11:22;9.27;;;8.38;;
9986;SDS011;5033;46.310;11.214;2023-03-01T01:13:51;8.65;;;7.85;;
9986;SDS011;5033;46.310;11.214;2023-03-01T01:16:18;9.10;;;8.20;;
9986;SDS011;5033;46.310;11.214;2023-03-01T01:18:47;9.15;;;8.25;;
9986;SDS011;5033;46.310;11.214;2023-03-01T01:21:14;8.82;;;7.95;;
9986;SDS011;5033;46.310;11.214;2023-03-01T01:23:43;8.32;;;7.53;;
9986;SDS011;5033;46.310;11.214;2023-03-01T01:26:13;8.90;;;8.05;;
9986;SDS011;5033;46.310;11.214;2023-03-01T01:28:41;7.57;;;6.88;;
9986;SDS011;5033;46.310;11.214;2023-03-01T01:31:08;7.85;;;7.15;;
9986;SDS011;5033;46.310;11.214;2023-03-01T01:33:36;8.32;;;7.07;;
9986;SDS011;5033;46.310;11.214;2023-03-01T01:36:04;6.20;;;5.60;;
9986;SDS011;5033;46.310;11.214;2023-03-01T01:38:31;7.13;;;6.45;;
9986;SDS011;5033;46.310;11.214;2023-03-01T01:40:59;6.78;;;6.20;;
9986;SDS011;5033;46.310;11.214;2023-03-01T01:43:28;7.28;;;6.28;;
9986;SDS011;5033;46.310;11.214;2023-03-01T01:45:56;6.25;;;5.65;;
9986;SDS011;5033;46.310;11.214;2023-03-01T01:48:29;6.47;;;5.88;;
9986;SDS011;5033;46.310;11.214;2023-03-01T01:51:05;6.45;;;5.95;;
9986;SDS011;5033;46.310;11.214;2023-03-01T01:53:36;7.15;;;6.45;;
9986;SDS011;5033;46.310;11.214;2023-03-01T01:56:05;6.72;;;6.13;;
9986;SDS011;5033;46.310;11.214;2023-03-01T01:58:36;6.85;;;6.25;;
9986;SDS011;5033;46.310;11.214;2023-03-01T02:01:04;6.10;;;5.50;;
9986;SDS011;5033;46.310;11.214;2023-03-01T02:03:32;6.40;;;5.80;;
9986;SDS011;5033;46.310;11.214;2023-03-01T02:06:04;6.22;;;5.72;;
9986;SDS011;5033;46.310;11.214;2023-03-01T02:08:36;5.88;;;5.38;;
9986;SDS011;5033;46.310;11.214;2023-03-01T02:11:04;6.25;;;5.78;;
9986;SDS011;5033;46.310;11.214;2023-03-01T02:13:32;6.03;;;5.50;;
9986;SDS011;5033;46.310;11.214;2023-03-01T02:16:04;6.38;;;5.88;;
9986;SDS011;5033;46.310;11.214;2023-03-01T02:18:34;5.63;;;5.20;;
9986;SDS011;5033;46.310;11.214;2023-03-01T02:21:04;6.40;;;5.90;;
9986;SDS011;5033;46.310;11.214;2023-03-01T02:23:38;5.95;;;5.45;;
9986;SDS011;5033;46.310;11.214;2023-03-01T02:26:07;6.22;;;5.68;;
9986;SDS011;5033;46.310;11.214;2023-03-01T02:28:40;6.18;;;5.57;;
9986;SDS011;5033;46.310;11.214;2023-03-01T02:31:10;6.10;;;5.50;;
9986;SDS011;5033;46.310;11.214;2023-03-01T02:33:58;5.30;;;4.90;;
9986;SDS011;5033;46.310;11.214;2023-03-01T02:36:26;5.93;;;5.43;;
9986;SDS011;5033;46.310;11.214;2023-03-01T02:38:58;5.60;;;5.20;;
9986;SDS011;5033;46.310;11.214;2023-03-01T02:41:28;5.85;;;5.35;;
9986;SDS011;5033;46.310;11.214;2023-03-01T02:44:02;5.40;;;5.00;;
9986;SDS011;5033;46.310;11.214;2023-03-01T02:46:29;5.90;;;5.40;;
9986;SDS011;5033;46.310;11.214;2023-03-01T02:48:56;5.55;;;5.05;;
9986;SDS011;5033;46.310;11.214;2023-03-01T02:51:26;6.30;;;5.80;;
9986;SDS011;5033;46.310;11.214;2023-03-01T02:54:09;5.32;;;4.93;;
9986;SDS011;5033;46.310;11.214;2023-03-01T02:56:42;5.70;;;5.30;;
9986;SDS011;5033;46.310;11.214;2023-03-01T02:59:15;5.40;;;5.00;;
9986;SDS011;5033;46.310;11.214;2023-03-01T03:01:44;5.50;;;5.10;;
9986;SDS011;5033;46.310;11.214;2023-03-01T03:04:13;4.75;;;4.45;;
9986;SDS011;5033;46.310;11.214;2023-03-01T03:06:42;5.43;;;5.00;;
9986;SDS011;5033;46.310;11.214;2023-03-01T03:09:09;5.78;;;5.18;;
9986;SDS011;5033;46.310;11.214;2023-03-01T03:11:36;5.60;;;5.20;;
9986;SDS011;5033;46.310;11.214;2023-03-01T03:14:04;5.40;;;4.90;;
9986;SDS011;5033;46.310;11.214;2023-03-01T03:16:38;5.20;;;4.80;;
9986;SDS011;5033;46.310;11.214;2023-03-01T03:19:06;5.50;;;5.10;;
9986;SDS011;5033;46.310;11.214;2023-03-01T03:21:33;5.57;;;5.13;;
9986;SDS011;5033;46.310;11.214;2023-03-01T03:24:01;5.63;;;5.13;;
9986;SDS011;5033;46.310;11.214;2023-03-01T03:26:28;5.25;;;4.85;;
9986;SDS011;5033;46.310;11.214;2023-03-01T03:28:56;5.80;;;5.40;;
9986;SDS011;5033;46.310;11.214;2023-03-01T03:31:23;5.82;;;5.43;;
9986;SDS011;5033;46.310;11.214;2023-03-01T03:33:52;5.32;;;4.93;;
9986;SDS011;5033;46.310;11.214;2023-03-01T03:36:20;5.15;;;4.75;;
9986;SDS011;5033;46.310;11.214;2023-03-01T03:38:49;6.00;;;5.45;;
9986;SDS011;5033;46.310;11.214;2023-03-01T03:41:16;4.95;;;4.65;;
9986;SDS011;5033;46.310;11.214;2023-03-01T03:43:43;5.53;;;5.03;;
9986;SDS011;5033;46.310;11.214;2023-03-01T03:46:11;5.20;;;4.70;;
9986;SDS011;5033;46.310;11.214;2023-03-01T03:48:39;4.90;;;4.50;;
9986;SDS011;5033;46.310;11.214;2023-03-01T03:51:11;6.05;;;5.60;;
9986;SDS011;5033;46.310;11.214;2023-03-01T03:53:39;5.32;;;4.93;;
9986;SDS011;5033;46.310;11.214;2023-03-01T03:56:06;4.90;;;4.57;;
9986;SDS011;5033;46.310;11.214;2023-03-01T03:58:33;5.43;;;5.03;;
9986;SDS011;5033;46.310;11.214;2023-03-01T04:01:01;5.97;;;5.45;;
9986;SDS011;5033;46.310;11.214;2023-03-01T04:03:28;5.32;;;4.82;;
9986;SDS011;5033;46.310;11.214;2023-03-01T04:05:57;5.40;;;5.00;;
9986;SDS011;5033;46.310;11.214;2023-03-01T04:08:25;7.25;;;5.20;;
9986;SDS011;5033;46.310;11.214;2023-03-01T04:10:56;5.50;;;5.10;;
9986;SDS011;5033;46.310;11.214;2023-03-01T04:13:24;5.35;;;4.95;;
9986;SDS011;5033;46.310;11.214;2023-03-01T04:15:51;4.95;;;4.55;;
9986;SDS011;5033;46.310;11.214;2023-03-01T04:18:19;6.20;;;5.57;;
9986;SDS011;5033;46.310;11.214;2023-03-01T04:20:47;5.80;;;5.30;;
9986;SDS011;5033;46.310;11.214;2023-03-01T04:23:20;5.60;;;5.20;;
9986;SDS011;5033;46.310;11.214;2023-03-01T04:25:49;5.55;;;5.13;;
9986;SDS011;5033;46.310;11.214;2023-03-01T04:28:19;6.00;;;5.50;;
9986;SDS011;5033;46.310;11.214;2023-03-01T04:30:46;5.43;;;5.03;;
9986;SDS011;5033;46.310;11.214;2023-03-01T04:33:13;5.72;;;5.22;;
9986;SDS011;5033;46.310;11.214;2023-03-01T04:35:40;4.97;;;4.60;;
9986;SDS011;5033;46.310;11.214;2023-03-01T04:38:07;4.55;;;4.25;;
9986;SDS011;5033;46.310;11.214;2023-03-01T04:40:35;5.43;;;4.93;;
9986;SDS011;5033;46.310;11.214;2023-03-01T04:43:04;5.00;;;4.70;;
9986;SDS011;5033;46.310;11.214;2023-03-01T04:45:32;4.80;;;4.50;;
9986;SDS011;5033;46.310;11.214;2023-03-01T04:48:00;4.68;;;4.38;;
9986;SDS011;5033;46.310;11.214;2023-03-01T04:50:27;4.97;;;4.57;;
9986;SDS011;5033;46.310;11.214;2023-03-01T04:52:54;4.95;;;4.65;;
9986;SDS011;5033;46.310;11.214;2023-03-01T04:55:23;5.07;;;4.57;;
9986;SDS011;5033;46.310;11.214;2023-03-01T04:57:51;4.47;;;4.18;;
9986;SDS011;5033;46.310;11.214;2023-03-01T05:00:20;5.00;;;4.60;;
9986;SDS011;5033;46.310;11.214;2023-03-01T05:02:49;4.68;;;4.38;;
9986;SDS011;5033;46.310;11.214;2023-03-01T05:05:23;5.35;;;5.00;;
9986;SDS011;5033;46.310;11.214;2023-03-01T05:07:52;5.03;;;4.63;;
9986;SDS011;5033;46.310;11.214;2023-03-01T05:10:20;5.05;;;4.65;;
9986;SDS011;5033;46.310;11.214;2023-03-01T05:12:47;5.45;;;5.05;;
9986;SDS011;5033;46.310;11.214;2023-03-01T05:15:14;6.15;;;5.65;;
9986;SDS011;5033;46.310;11.214;2023-03-01T05:17:43;5.75;;;5.35;;
9986;SDS011;5033;46.310;11.214;2023-03-01T05:20:11;5.47;;;5.07;;
9986;SDS011;5033;46.310;11.214;2023-03-01T05:22:38;6.35;;;5.95;;
9986;SDS011;5033;46.310;11.214;2023-03-01T05:25:05;8.05;;;7.45;;
9986;SDS011;5033;46.310;11.214;2023-03-01T05:27:33;7.07;;;6.47;;
9986;SDS011;5033;46.310;11.214;2023-03-01T05:30:01;6.20;;;5.80;;
9986;SDS011;5033;46.310;11.214;2023-03-01T05:32:38;5.70;;;5.30;;
9986;SDS011;5033;46.310;11.214;2023-03-01T05:35:09;5.68;;;5.28;;
9986;SDS011;5033;46.310;11.214;2023-03-01T05:37:38;5.53;;;5.13;;
9986;SDS011;5033;46.310;11.214;2023-03-01T05:40:06;4.50;;;4.20;;
9986;SDS011;5033;46.310;11.214;2023-03-01T05:42:40;5.53;;;5.03;;
9986;SDS011;5033;46.310;11.214;2023-03-01T05:45:09;5.57;;;5.15;;
9986;SDS011;5033;46.310;11.214;2023-03-01T05:47:37;5.90;;;5.43;;
9986;SDS011;5033;46.310;11.214;2023-03-01T05:50:10;5.35;;;4.95;;
9986;SDS011;5033;46.310;11.214;2023-03-01T05:52:38;5.80;;;5.32;;
9986;SDS011;5033;46.310;11.214;2023-03-01T05:55:05;5.30;;;4.90;;
9986;SDS011;5033;46.310;11.214;2023-03-01T05:57:33;4.97;;;4.63;;
9986;SDS011;5033;46.310;11.214;2023-03-01T06:00:00;5.60;;;5.20;;
9986;SDS011;5033;46.310;11.214;2023-03-01T06:02:27;5.40;;;5.00;;
9986;SDS011;5033;46.310;11.214;2023-03-01T06:04:55;5.35;;;4.95;;
9986;SDS011;5033;46.310;11.214;2023-03-01T06:07:23;4.65;;;4.35;;
9986;SDS011;5033;46.310;11.214;2023-03-01T06:09:50;5.82;;;5.43;;
9986;SDS011;5033;46.310;11.214;2023-03-01T06:12:17;5.07;;;4.68;;
9986;SDS011;5033;46.310;11.214;2023-03-01T06:14:44;5.32;;;4.82;;
9986;SDS011;5033;46.310;11.214;2023-03-01T06:17:12;5.45;;;5.05;;
9986;SDS011;5033;46.310;11.214;2023-03-01T06:19:39;5.55;;;5.05;;
9986;SDS011;5033;46.310;11.214;2023-03-01T06:22:06;5.90;;;5.50;;
9986;SDS011;5033;46.310;11.214;2023-03-01T06:24:34;5.80;;;5.30;;
9986;SDS011;5033;46.310;11.214;2023-03-01T06:27:01;5.47;;;5.07;;
9986;SDS011;5033;46.310;11.214;2023-03-01T06:29:28;6.00;;;5.50;;
9986;SDS011;5033;46.310;11.214;2023-03-01T06:31:55;4.95;;;4.65;;
9986;SDS011;5033;46.310;11.214;2023-03-01T06:34:22;5.97;;;5.57;;
9986;SDS011;5033;46.310;11.214;2023-03-01T06:36:49;5.70;;;5.20;;
9986;SDS011;5033;46.310;11.214;2023-03-01T06:39:16;5.85;;;5.35;;
9986;SDS011;5033;46.310;11.214;2023-03-01T06:41:44;5.00;;;4.60;;
9986;SDS011;5033;46.310;11.214;2023-03-01T06:44:11;6.45;;;5.95;;
9986;SDS011;5033;46.310;11.214;2023-03-01T06:46:38;5.53;;;5.13;;
9986;SDS011;5033;46.310;11.214;2023-03-01T06:49:05;5.53;;;5.03;;
9986;SDS011;5033;46.310;11.214;2023-03-01T06:51:34;5.45;;;4.95;;
9986;SDS011;5033;46.310;11.214;2023-03-01T06:54:02;5.43;;;4.97;;
9986;SDS011;5033;46.310;11.214;2023-03-01T06:56:30;5.40;;;4.90;;
9986;SDS011;5033;46.310;11.214;2023-03-01T06:58:58;5.35;;;4.95;;
9986;SDS011;5033;46.310;11.214;2023-03-01T07:01:25;4.95;;;4.65;;
9986;SDS011;5033;46.310;11.214;2023-03-01T07:03:52;6.00;;;5.55;;
9986;SDS011;5033;46.310;11.214;2023-03-01T07:06:19;5.45;;;5.05;;
9986;SDS011;5033;46.310;11.214;2023-03-01T07:08:46;5.05;;;4.65;;
9986;SDS011;5033;46.310;11.214;2023-03-01T07:11:14;5.50;;;4.90;;
9986;SDS011;5033;46.310;11.214;2023-03-01T07:13:41;5.57;;;5.15;;
9986;SDS011;5033;46.310;11.214;2023-03-01T07:16:09;5.13;;;4.53;;
9986;SDS011;5033;46.310;11.214;2023-03-01T07:18:36;5.07;;;4.68;;
9986;SDS011;5033;46.310;11.214;2023-03-01T07:21:04;4.93;;;4.55;;
9986;SDS011;5033;46.310;11.214;2023-03-01T07:23:31;5.10;;;4.70;;
9986;SDS011;5033;46.310;11.214;2023-03-01T07:25:58;5.95;;;5.45;;
9986;SDS011;5033;46.310;11.214;2023-03-01T07:28:26;7.38;;;5.40;;
9986;SDS011;5033;46.310;11.214;2023-03-01T07:30:53;6.10;;;4.90;;
9986;SDS011;5033;46.310;11.214;2023-03-01T07:33:22;5.78;;;5.38;;
9986;SDS011;5033;46.310;11.214;2023-03-01T07:35:55;5.32;;;4.93;;
9986;SDS011;5033;46.310;11.214;2023-03-01T07:38:22;5.63;;;5.22;;
9986;SDS011;5033;46.310;11.214;2023-03-01T07:40:49;5.82;;;5.35;;
9986;SDS011;5033;46.310;11.214;2023-03-01T07:43:16;8.20;;;4.95;;
9986;SDS011;5033;46.310;11.214;2023-03-01T07:45:43;5.97;;;5.47;;
9986;SDS011;5033;46.310;11.214;2023-03-01T07:48:10;6.10;;;5.60;;
9986;SDS011;5033;46.310;11.214;2023-03-01T07:50:38;6.05;;;5.45;;
9986;SDS011;5033;46.310;11.214;2023-03-01T07:53:05;8.68;;;6.35;;
9986;SDS011;5033;46.310;11.214;2023-03-01T07:55:32;6.72;;;6.13;;
9986;SDS011;5033;46.310;11.214;2023-03-01T07:57:59;7.50;;;6.00;;
9986;SDS011;5033;46.310;11.214;2023-03-01T08:00:26;6.65;;;5.97;;
9986;SDS011;5033;46.310;11.214;2023-03-01T08:02:53;6.80;;;5.63;;
9986;SDS011;5033;46.310;11.214;2023-03-01T08:05:20;6.13;;;5.53;;
9986;SDS011;5033;46.310;11.214;2023-03-01T08:07:49;5.78;;;5.00;;
9986;SDS011;5033;46.310;11.214;2023-03-01T08:10:16;5.40;;;4.90;;
9986;SDS011;5033;46.310;11.214;2023-03-01T08:12:43;6.60;;;4.85;;
9986;SDS011;5033;46.310;11.214;2023-03-01T08:15:10;7.70;;;5.43;;
9986;SDS011;5033;46.310;11.214;2023-03-01T08:17:37;5.72;;;5.15;;
9986;SDS011;5033;46.310;11.214;2023-03-01T08:20:04;6.20;;;5.70;;
9986;SDS011;5033;46.310;11.214;2023-03-01T08:22:32;5.40;;;4.93;;
9986;SDS011;5033;46.310;11.214;2023-03-01T08:25:01;5.63;;;5.22;;
9986;SDS011;5033;46.310;11.214;2023-03-01T08:27:28;5.53;;;5.03;;
9986;SDS011;5033;46.310;11.214;2023-03-01T08:29:54;5.97;;;4.80;;
9986;SDS011;5033;46.310;11.214;2023-03-01T08:32:21;5.57;;;5.07;;
9986;SDS011;5033;46.310;11.214;2023-03-01T08:34:48;4.80;;;4.40;;
9986;SDS011;5033;46.310;11.214;2023-03-01T08:37:15;5.30;;;4.80;;
9986;SDS011;5033;46.310;11.214;2023-03-01T08:39:42;5.70;;;4.97;;
9986;SDS011;5033;46.310;11.214;2023-03-01T08:42:10;5.40;;;4.90;;
9986;SDS011;5033;46.310;11.214;2023-03-01T08:44:37;5.28;;;4.78;;
9986;SDS011;5033;46.310;11.214;2023-03-01T08:47:04;5.20;;;4.70;;
9986;SDS011;5033;46.310;11.214;2023-03-01T08:49:31;5.55;;;5.05;;
9986;SDS011;5033;46.310;11.214;2023-03-01T08:51:58;4.95;;;4.55;;
9986;SDS011;5033;46.310;11.214;2023-03-01T08:54:26;6.60;;;6.00;;
9986;SDS011;5033;46.310;11.214;2023-03-01T08:56:53;5.93;;;5.13;;
9986;SDS011;5033;46.310;11.214;2023-03-01T08:59:22;6.20;;;5.60;;
9986;SDS011;5033;46.310;11.214;2023-03-01T09:01:48;9.13;;;4.95;;
9986;SDS011;5033;46.310;11.214;2023-03-01T09:04:15;6.07;;;5.47;;
9986;SDS011;5033;46.310;11.214;2023-03-01T09:06:42;8.15;;;5.03;;
9986;SDS011;5033;46.310;11.214;2023-03-01T09:09:12;7.30;;;4.90;;
9986;SDS011;5033;46.310;11.214;2023-03-01T09:11:40;5.95;;;4.82;;
9986;SDS011;5033;46.310;11.214;2023-03-01T09:14:08;4.80;;;4.40;;
9986;SDS011;5033;46.310;11.214;2023-03-01T09:16:36;5.30;;;4.47;;
9986;SDS011;5033;46.310;11.214;2023-03-01T09:19:03;7.18;;;5.18;;
9986;SDS011;5033;46.310;11.214;2023-03-01T09:21:31;5.00;;;4.50;;
9986;SDS011;5033;46.310;11.214;2023-03-01T09:23:57;5.70;;;4.63;;
9986;SDS011;5033;46.310;11.214;2023-03-01T09:26:24;5.90;;;4.72;;
9986;SDS011;5033;46.310;11.214;2023-03-01T09:28:52;4.50;;;4.10;;
9986;SDS011;5033;46.310;11.214;2023-03-01T09:31:21;7.13;;;4.90;;
9986;SDS011;5033;46.310;11.214;2023-03-01T09:33:52;4.72;;;4.25;;
9986;SDS011;5033;46.310;11.214;2023-03-01T09:36:20;5.28;;;4.85;;
9986;SDS011;5033;46.310;11.214;2023-03-01T09:38:48;4.57;;;4.18;;
9986;SDS011;5033;46.310;11.214;2023-03-01T09:41:36;5.40;;;4.90;;
9986;SDS011;5033;46.310;11.214;2023-03-01T09:44:12;4.57;;;4.18;;
9986;SDS011;5033;46.310;11.214;2023-03-01T09:46:52;5.30;;;4.80;;
9986;SDS011;5033;46.310;11.214;2023-03-01T09:49:21;5.50;;;5.00;;
9986;SDS011;5033;46.310;11.214;2023-03-01T09:51:55;6.30;;;5.03;;
9986;SDS011;5033;46.310;11.214;2023-03-01T09:54:24;6.28;;;5.35;;
9986;SDS011;5033;46.310;11.214;2023-03-01T09:57:05;5.80;;;5.20;;
9986;SDS011;5033;46.310;11.214;2023-03-01T09:59:41;5.38;;;4.88;;
9986;SDS011;5033;46.310;11.214;2023-03-01T10:02:21;5.32;;;4.82;;
9986;SDS011;5033;46.310;11.214;2023-03-01T10:04:54;5.75;;;4.90;;
9986;SDS011;5033;46.310;11.214;2023-03-01T10:07:32;4.95;;;4.55;;
9986;SDS011;5033;46.310;11.214;2023-03-01T10:10:06;4.68;;;4.28;;
9986;SDS011;5033;46.310;11.214;2023-03-01T10:12:34;4.85;;;4.45;;
9986;SDS011;5033;46.310;11.214;2023-03-01T10:15:06;11.55;;;4.18;;
9986;SDS011;5033;46.310;11.214;2023-03-01T10:17:38;10.40;;;4.38;;
9986;SDS011;5033;46.310;11.214;2023-03-01T10:20:17;5.60;;;4.70;;
9986;SDS011;5033;46.310;11.214;2023-03-01T10:22:46;4.57;;;4.15;;
9986;SDS011;5033;46.310;11.214;2023-03-01T10:25:15;6.47;;;4.50;;
9986;SDS011;5033;46.310;11.214;2023-03-01T10:27:51;5.10;;;4.65;;
9986;SDS011;5033;46.310;11.214;2023-03-01T10:30:20;4.35;;;3.97;;
9986;SDS011;5033;46.310;11.214;2023-03-01T10:32:49;7.82;;;4.43;;
9986;SDS011;5033;46.310;11.214;2023-03-01T10:35:21;4.63;;;4.22;;
9986;SDS011;5033;46.310;11.214;2023-03-01T10:38:02;4.53;;;4.13;;
9986;SDS011;5033;46.310;11.214;2023-03-01T10:40:31;5.03;;;4.50;;
9986;SDS011;5033;46.310;11.214;2023-03-01T10:43:01;5.50;;;4.45;;
9986;SDS011;5033;46.310;11.214;2023-03-01T10:45:31;5.03;;;4.63;;
9986;SDS011;5033;46.310;11.214;2023-03-01T10:48:10;5.10;;;4.60;;
9986;SDS011;5033;46.310;11.214;2023-03-01T10:50:42;4.75;;;4.35;;
9986;SDS011;5033;46.310;11.214;2023-03-01T10:53:24;5.15;;;4.65;;
9986;SDS011;5033;46.310;11.214;2023-03-01T10:55:58;4.60;;;4.15;;
9986;SDS011;5033;46.310;11.214;2023-03-01T10:58:27;4.85;;;4.43;;
9986;SDS011;5033;46.310;11.214;2023-03-01T11:00:56;4.93;;;4.50;;
9986;SDS011;5033;46.310;11.214;2023-03-01T11:03:24;5.63;;;5.03;;
9986;SDS011;5033;46.310;11.214;2023-03-01T11:05:58;4.75;;;4.25;;
9986;SDS011;5033;46.310;11.214;2023-03-01T11:08:36;4.65;;;4.25;;
9986;SDS011;5033;46.310;11.214;2023-03-01T11:11:18;4.97;;;4.47;;
9986;SDS011;5033;46.310;11.214;2023-03-01T11:13:52;4.63;;;4.07;;
9986;SDS011;5033;46.310;11.214;2023-03-01T11:16:26;6.45;;;4.75;;
9986;SDS011;5033;46.310;11.214;2023-03-01T11:18:58;4.60;;;4.20;;
9986;SDS011;5033;46.310;11.214;2023-03-01T11:21:30;4.45;;;4.00;;
9986;SDS011;5033;46.310;11.214;2023-03-01T11:24:01;3.80;;;3.50;;
9986;SDS011;5033;46.310;11.214;2023-03-01T11:26:30;5.05;;;4.53;;
9986;SDS011;5033;46.310;11.214;2023-03-01T11:29:05;4.40;;;4.00;;
9986;SDS011;5033;46.310;11.214;2023-03-01T11:31:44;4.88;;;4.05;;
9986;SDS011;5033;46.310;11.214;2023-03-01T11:34:13;5.28;;;4.78;;
9986;SDS011;5033;46.310;11.214;2023-03-01T11:36:51;4.40;;;4.00;;
9986;SDS011;5033;46.310;11.214;2023-03-01T11:39:25;4.97;;;4.18;;
9986;SDS011;5033;46.310;11.214;2023-03-01T11:42:01;4.35;;;3.95;;
9986;SDS011;5033;46.310;11.214;2023-03-01T11:44:33;6.28;;;4.18;;
9986;SDS011;5033;46.310;11.214;2023-03-01T11:47:10;5.13;;;4.57;;
9986;SDS011;5033;46.310;11.214;2023-03-01T11:49:55;5.15;;;4.38;;
9986;SDS011;5033;46.310;11.214;2023-03-01T11:52:35;6.22;;;4.40;;
9986;SDS011;5033;46.310;11.214;2023-03-01T11:55:19;6.97;;;4.97;;
9986;SDS011;5033;46.310;11.214;2023-03-01T11:58:07;7.20;;;5.03;;
9986;SDS011;5033;46.310;11.214;2023-03-01T12:00:51;6.15;;;4.95;;
9986;SDS011;5033;46.310;11.214;2023-03-01T12:06:37;4.15;;;3.72;;
9986;SDS011;5033;46.310;11.214;2023-03-01T12:12:26;4.78;;;4.28;;
9986;SDS011;5033;46.310;11.214;2023-03-01T12:15:15;4.55;;;4.13;;
9986;SDS011;5033;46.310;11.214;2023-03-01T12:18:09;4.30;;;3.90;;
9986;SDS011;5033;46.310;11.214;2023-03-01T12:20:50;4.68;;;3.97;;
9986;SDS011;5033;46.310;11.214;2023-03-01T12:23:42;3.75;;;3.45;;
9986;SDS011;5033;46.310;11.214;2023-03-01T12:26:32;4.13;;;3.47;;
9986;SDS011;5033;46.310;11.214;2023-03-01T12:29:15;4.05;;;3.75;;
9986;SDS011;5033;46.310;11.214;2023-03-01T12:32:00;4.70;;;3.80;;
9986;SDS011;5033;46.310;11.214;2023-03-01T12:37:54;4.72;;;4.15;;
9986;SDS011;5033;46.310;11.214;2023-03-01T12:40:32;4.45;;;4.05;;
9986;SDS011;5033;46.310;11.214;2023-03-01T12:43:10;4.20;;;3.80;;
9986;SDS011;5033;46.310;11.214;2023-03-01T12:45:52;6.15;;;4.40;;
9986;SDS011;5033;46.310;11.214;2023-03-01T12:48:31;3.97;;;3.63;;
9986;SDS011;5033;46.310;11.214;2023-03-01T12:51:06;3.83;;;3.53;;
9986;SDS011;5033;46.310;11.214;2023-03-01T12:53:39;4.28;;;3.88;;
9986;SDS011;5033;46.310;11.214;2023-03-01T12:56:08;4.10;;;3.80;;
9986;SDS011;5033;46.310;11.214;2023-03-01T12:58:41;4.68;;;4.07;;
9986;SDS011;5033;46.310;11.214;2023-03-01T13:01:21;4.10;;;3.70;;
9986;SDS011;5033;46.310;11.214;2023-03-01T13:04:05;3.63;;;3.33;;
9986;SDS011;5033;46.310;11.214;2023-03-01T13:06:44;3.00;;;2.80;;
9986;SDS011;5033;46.310;11.214;2023-03-01T13:09:19;3.22;;;2.92;;
9986;SDS011;5033;46.310;11.214;2023-03-01T13:11:55;3.88;;;3.20;;
9986;SDS011;5033;46.310;11.214;2023-03-01T13:14:37;3.47;;;3.17;;
9986;SDS011;5033;46.310;11.214;2023-03-01T13:17:31;3.42;;;3.13;;
9986;SDS011;5033;46.310;11.214;2023-03-01T13:20:00;3.92;;;3.60;;
9986;SDS011;5033;46.310;11.214;2023-03-01T13:22:29;3.53;;;3.22;;
9986;SDS011;5033;46.310;11.214;2023-03-01T13:25:02;3.88;;;3.13;;
9986;SDS011;5033;46.310;11.214;2023-03-01T13:27:39;7.90;;;3.92;;
9986;SDS011;5033;46.310;11.214;2023-03-01T13:30:38;4.38;;;3.85;;
9986;SDS011;5033;46.310;11.214;2023-03-01T13:36:11;4.28;;;3.38;;
9986;SDS011;5033;46.310;11.214;2023-03-01T13:41:58;7.13;;;3.65;;
9986;SDS011;5033;46.310;11.214;2023-03-01T13:44:29;8.23;;;4.15;;
9986;SDS011;5033;46.310;11.214;2023-03-01T13:47:02;4.95;;;4.40;;
9986;SDS011;5033;46.310;11.214;2023-03-01T13:49:43;4.38;;;3.97;;
9986;SDS011;5033;46.310;11.214;2023-03-01T13:52:27;3.53;;;3.22;;
9986;SDS011;5033;46.310;11.214;2023-03-01T13:55:01;17.02;;;10.68;;
9986;SDS011;5033;46.310;11.214;2023-03-01T13:57:32;13.00;;;8.82;;
9986;SDS011;5033;46.310;11.214;2023-03-01T14:00:00;7.55;;;5.68;;
9986;SDS011;5033;46.310;11.214;2023-03-01T14:02:31;6.68;;;5.25;;
9986;SDS011;5033;46.310;11.214;2023-03-01T14:04:59;5.90;;;4.80;;
9986;SDS011;5033;46.310;11.214;2023-03-01T14:07:31;4.75;;;4.25;;
9986;SDS011;5033;46.310;11.214;2023-03-01T14:09:58;6.15;;;4.30;;
9986;SDS011;5033;46.310;11.214;2023-03-01T14:12:35;4.85;;;4.20;;
9986;SDS011;5033;46.310;11.214;2023-03-01T14:15:14;4.32;;;3.92;;
9986;SDS011;5033;46.310;11.214;2023-03-01T14:20:41;4.43;;;3.95;;
9986;SDS011;5033;46.310;11.214;2023-03-01T14:23:11;6.07;;;4.32;;
9986;SDS011;5033;46.310;11.214;2023-03-01T14:25:45;5.80;;;3.78;;
9986;SDS011;5033;46.310;11.214;2023-03-01T14:28:16;7.28;;;4.35;;
9986;SDS011;5033;46.310;11.214;2023-03-01T14:30:45;4.40;;;4.00;;
9986;SDS011;5033;46.310;11.214;2023-03-01T14:33:23;4.95;;;3.97;;
9986;SDS011;5033;46.310;11.214;2023-03-01T14:35:52;4.78;;;4.10;;
9986;SDS011;5033;46.310;11.214;2023-03-01T14:38:22;3.88;;;3.58;;
9986;SDS011;5033;46.310;11.214;2023-03-01T14:40:56;3.53;;;3.15;;
9986;SDS011;5033;46.310;11.214;2023-03-01T14:43:28;3.40;;;3.10;;
9986;SDS011;5033;46.310;11.214;2023-03-01T14:45:56;3.97;;;3.63;;
9986;SDS011;5033;46.310;11.214;2023-03-01T14:48:26;4.68;;;3.85;;
9986;SDS011;5033;46.310;11.214;2023-03-01T14:50:56;3.67;;;3.00;;
9986;SDS011;5033;46.310;11.214;2023-03-01T14:53:25;4.40;;;4.00;;
9986;SDS011;5033;46.310;11.214;2023-03-01T14:55:55;3.53;;;3.22;;
9986;SDS011;5033;46.310;11.214;2023-03-01T14:58:27;4.28;;;3.83;;
9986;SDS011;5033;46.310;11.214;2023-03-01T15:00:55;4.57;;;4.18;;
9986;SDS011;5033;46.310;11.214;2023-03-01T15:03:26;4.30;;;3.88;;
9986;SDS011;5033;46.310;11.214;2023-03-01T15:05:57;6.28;;;5.68;;
9986;SDS011;5033;46.310;11.214;2023-03-01T15:08:26;9.27;;;8.38;;
9986;SDS011;5033;46.310;11.214;2023-03-01T15:10:59;7.57;;;6.88;;
9986;SDS011;5033;46.310;11.214;2023-03-01T15:13:29;6.45;;;5.85;;
9986;SDS011;5033;46.310;11.214;2023-03-01T15:16:02;6.85;;;6.15;;
9986;SDS011;5033;46.310;11.214;2023-03-01T15:18:35;6.13;;;5.47;;
9986;SDS011;5033;46.310;11.214;2023-03-01T15:21:07;5.78;;;5.22;;
9986;SDS011;5033;46.310;11.214;2023-03-01T15:23:36;5.07;;;4.57;;
9986;SDS011;5033;46.310;11.214;2023-03-01T15:26:06;5.28;;;4.63;;
9986;SDS011;5033;46.310;11.214;2023-03-01T15:28:49;4.50;;;4.10;;
9986;SDS011;5033;46.310;11.214;2023-03-01T15:31:18;5.50;;;5.00;;
9986;SDS011;5033;46.310;11.214;2023-03-01T15:33:48;5.03;;;4.60;;
9986;SDS011;5033;46.310;11.214;2023-03-01T15:36:30;4.88;;;4.43;;
9986;SDS011;5033;46.310;11.214;2023-03-01T15:39:05;5.15;;;4.65;;
9986;SDS011;5033;46.310;11.214;2023-03-01T15:41:52;6.00;;;4.85;;